N772XJ KFLL-KORL
Flight info
| Callsign | N772XJ |
|---|---|
| Flight time | 0h 39m |
| Altitude | 28000 |
| Route | FRSBE2 WAPOM MUNGI1 |
| Aircraft | C750/M-SBDE3FGHRWXY/S |
Departure
| Time | 2026-05-04 23:58 |
|---|---|
| Airport | Fort Lauderdale Hollywood International Airport (KFLL) |
Arrival
| Time | 2026-05-05 00:38 |
|---|---|
| Airport | Orlando Executive Airport (KORL) |
| Time | Latitude | Longitude | Altitude | Speed | Heading |
|---|---|---|---|---|---|
| 2026-05-04 23:14 | 26.06893 | -80.15561 | 12 ft | 0 kts | 39° |
| 2026-05-04 23:53 | 26.06893 | -80.15559 | 12 ft | 1 kts | 57° |
| 2026-05-04 23:53 | 26.06887 | -80.15515 | 12 ft | 10 kts | 94° |
| 2026-05-04 23:53 | 26.06912 | -80.15432 | 12 ft | 16 kts | 69° |
| 2026-05-04 23:54 | 26.06923 | -80.15317 | 12 ft | 14 kts | 52° |
| 2026-05-04 23:54 | 26.07038 | -80.15302 | 12 ft | 20 kts | 357° |
| 2026-05-04 23:54 | 26.07131 | -80.15377 | 12 ft | 20 kts | 316° |
| 2026-05-04 23:54 | 26.07234 | -80.15491 | 12 ft | 22 kts | 315° |
| 2026-05-04 23:55 | 26.07349 | -80.15618 | 12 ft | 23 kts | 315° |
| 2026-05-04 23:55 | 26.07458 | -80.15738 | 12 ft | 21 kts | 314° |
| 2026-05-04 23:55 | 26.07494 | -80.16066 | 12 ft | 26 kts | 270° |
| 2026-05-04 23:56 | 26.07495 | -80.16195 | 12 ft | 25 kts | 270° |
| 2026-05-04 23:56 | 26.07497 | -80.16449 | 12 ft | 23 kts | 270° |
| 2026-05-04 23:56 | 26.07499 | -80.16606 | 12 ft | 11 kts | 282° |
| 2026-05-04 23:56 | 26.07534 | -80.16643 | 12 ft | 7 kts | 347° |
| 2026-05-04 23:57 | 26.07578 | -80.16643 | 13 ft | 10 kts | 0° |
| 2026-05-04 23:57 | 26.07596 | -80.16643 | 13 ft | 0 kts | 0° |
| 2026-05-04 23:57 | 26.07611 | -80.16643 | 13 ft | 8 kts | 0° |
| 2026-05-04 23:57 | 26.07690 | -80.16623 | 14 ft | 12 kts | 55° |
| 2026-05-04 23:58 | 26.07696 | -80.16535 | 15 ft | 20 kts | 90° |
| 2026-05-04 23:58 | 26.07692 | -80.15960 | 16 ft | 125 kts | 90° |
| 2026-05-04 23:58 | 26.07685 | -80.14899 | 510 ft | 142 kts | 88° |
| 2026-05-04 23:58 | 26.07661 | -80.13771 | 1246 ft | 149 kts | 88° |
| 2026-05-04 23:59 | 26.07631 | -80.12551 | 1822 ft | 166 kts | 89° |
| 2026-05-04 23:59 | 26.07652 | -80.11215 | 2466 ft | 186 kts | 85° |
| 2026-05-04 23:59 | 26.07878 | -80.09692 | 3046 ft | 213 kts | 73° |
| 2026-05-04 23:59 | 26.08541 | -80.08092 | 3597 ft | 241 kts | 60° |
| 2026-05-05 00:00 | 26.09822 | -80.06796 | 3977 ft | 257 kts | 31° |
| 2026-05-05 00:00 | 26.10954 | -80.06289 | 4278 ft | 268 kts | 19° |
| 2026-05-05 00:00 | 26.13292 | -80.05468 | 5710 ft | 270 kts | 18° |
| 2026-05-05 00:00 | 26.15132 | -80.04868 | 6441 ft | 280 kts | 6° |
| 2026-05-05 00:01 | 26.17039 | -80.05206 | 7351 ft | 277 kts | 340° |
| 2026-05-05 00:01 | 26.18853 | -80.05895 | 8402 ft | 280 kts | 338° |
| 2026-05-05 00:01 | 26.20707 | -80.06643 | 9390 ft | 284 kts | 334° |
| 2026-05-05 00:01 | 26.22293 | -80.07935 | 10196 ft | 283 kts | 308° |
| 2026-05-05 00:02 | 26.23340 | -80.09848 | 10545 ft | 301 kts | 290° |
| 2026-05-05 00:02 | 26.24113 | -80.12123 | 10701 ft | 327 kts | 288° |
| 2026-05-05 00:02 | 26.24960 | -80.14565 | 11074 ft | 342 kts | 289° |
| 2026-05-05 00:02 | 26.25991 | -80.16921 | 11828 ft | 346 kts | 298° |
| 2026-05-05 00:03 | 26.27306 | -80.19166 | 12633 ft | 347 kts | 301° |
| 2026-05-05 00:03 | 26.28634 | -80.21426 | 13363 ft | 350 kts | 300° |
| 2026-05-05 00:03 | 26.29936 | -80.23749 | 14063 ft | 353 kts | 299° |
| 2026-05-05 00:03 | 26.31238 | -80.26080 | 14750 ft | 354 kts | 300° |
| 2026-05-05 00:04 | 26.32547 | -80.28376 | 15417 ft | 356 kts | 300° |
| 2026-05-05 00:04 | 26.33896 | -80.30736 | 16116 ft | 357 kts | 300° |
| 2026-05-05 00:04 | 26.35221 | -80.33079 | 16808 ft | 359 kts | 299° |
| 2026-05-05 00:04 | 26.36543 | -80.35419 | 17532 ft | 361 kts | 299° |
| 2026-05-05 00:05 | 26.37890 | -80.37796 | 18350 ft | 358 kts | 299° |
| 2026-05-05 00:05 | 26.39152 | -80.40005 | 18938 ft | 319 kts | 299° |
| 2026-05-05 00:05 | 26.40299 | -80.42029 | 18992 ft | 304 kts | 298° |
| 2026-05-05 00:05 | 26.41422 | -80.44036 | 18995 ft | 304 kts | 298° |
| 2026-05-05 00:06 | 26.42546 | -80.46029 | 18996 ft | 304 kts | 298° |
| 2026-05-05 00:06 | 26.43677 | -80.48025 | 18998 ft | 304 kts | 298° |
| 2026-05-05 00:06 | 26.44804 | -80.50019 | 18999 ft | 303 kts | 298° |
| 2026-05-05 00:06 | 26.45929 | -80.52013 | 18999 ft | 303 kts | 298° |
| 2026-05-05 00:07 | 26.47061 | -80.54002 | 19001 ft | 304 kts | 300° |
| 2026-05-05 00:07 | 26.48496 | -80.55744 | 18991 ft | 309 kts | 315° |
| 2026-05-05 00:07 | 26.50370 | -80.57013 | 18994 ft | 320 kts | 330° |
| 2026-05-05 00:07 | 26.52485 | -80.57758 | 19011 ft | 325 kts | 337° |
| 2026-05-05 00:08 | 26.54665 | -80.58435 | 19015 ft | 325 kts | 337° |
| 2026-05-05 00:08 | 26.56843 | -80.59126 | 19019 ft | 326 kts | 337° |
| 2026-05-05 00:08 | 26.59076 | -80.59848 | 19019 ft | 347 kts | 338° |
| 2026-05-05 00:08 | 26.61456 | -80.60609 | 19019 ft | 358 kts | 338° |
| 2026-05-05 00:09 | 26.63870 | -80.61361 | 19021 ft | 362 kts | 338° |
| 2026-05-05 00:09 | 26.66297 | -80.62128 | 19016 ft | 363 kts | 338° |
| 2026-05-05 00:09 | 26.68725 | -80.62906 | 19018 ft | 364 kts | 338° |
| 2026-05-05 00:09 | 26.71135 | -80.63675 | 19017 ft | 364 kts | 338° |
| 2026-05-05 00:10 | 26.73572 | -80.64448 | 19016 ft | 364 kts | 338° |
| 2026-05-05 00:10 | 26.76011 | -80.65224 | 19015 ft | 364 kts | 338° |
| 2026-05-05 00:10 | 26.78448 | -80.66002 | 19015 ft | 364 kts | 338° |
| 2026-05-05 00:10 | 26.80888 | -80.66780 | 19017 ft | 364 kts | 338° |
| 2026-05-05 00:11 | 26.83336 | -80.67560 | 19017 ft | 364 kts | 338° |
| 2026-05-05 00:11 | 26.85754 | -80.68331 | 19017 ft | 364 kts | 338° |
| 2026-05-05 00:11 | 26.88200 | -80.69113 | 19016 ft | 366 kts | 338° |
| 2026-05-05 00:11 | 26.90647 | -80.69894 | 19017 ft | 365 kts | 338° |
| 2026-05-05 00:12 | 26.93053 | -80.70772 | 19015 ft | 364 kts | 335° |
| 2026-05-05 00:12 | 26.95450 | -80.71688 | 19016 ft | 364 kts | 335° |
| 2026-05-05 00:12 | 26.97858 | -80.72591 | 19017 ft | 364 kts | 336° |
| 2026-05-05 00:12 | 27.00262 | -80.73494 | 19018 ft | 363 kts | 335° |
| 2026-05-05 00:13 | 27.02657 | -80.74403 | 19019 ft | 364 kts | 335° |
| 2026-05-05 00:13 | 27.05030 | -80.75303 | 19020 ft | 364 kts | 335° |
| 2026-05-05 00:13 | 27.07433 | -80.76211 | 19019 ft | 364 kts | 336° |
| 2026-05-05 00:13 | 27.09832 | -80.77118 | 19020 ft | 364 kts | 335° |
| 2026-05-05 00:14 | 27.12231 | -80.78028 | 19020 ft | 364 kts | 335° |
| 2026-05-05 00:14 | 27.14632 | -80.78939 | 19020 ft | 364 kts | 335° |
| 2026-05-05 00:14 | 27.17034 | -80.79849 | 19020 ft | 364 kts | 335° |
| 2026-05-05 00:14 | 27.19441 | -80.80762 | 19035 ft | 364 kts | 336° |
| 2026-05-05 00:15 | 27.21844 | -80.81674 | 19033 ft | 364 kts | 336° |
| 2026-05-05 00:15 | 27.24247 | -80.82587 | 19033 ft | 364 kts | 336° |
| 2026-05-05 00:15 | 27.26649 | -80.83500 | 19034 ft | 364 kts | 336° |
| 2026-05-05 00:15 | 27.29025 | -80.84403 | 19034 ft | 364 kts | 336° |
| 2026-05-05 00:16 | 27.31427 | -80.85316 | 19031 ft | 364 kts | 336° |
| 2026-05-05 00:16 | 27.33877 | -80.86119 | 19023 ft | 367 kts | 340° |
| 2026-05-05 00:16 | 27.36353 | -80.86837 | 19024 ft | 367 kts | 340° |
| 2026-05-05 00:16 | 27.38821 | -80.87565 | 19026 ft | 367 kts | 339° |
| 2026-05-05 00:17 | 27.41290 | -80.88308 | 19029 ft | 366 kts | 339° |
| 2026-05-05 00:17 | 27.43758 | -80.89044 | 19037 ft | 367 kts | 340° |
| 2026-05-05 00:17 | 27.46192 | -80.89765 | 19038 ft | 366 kts | 340° |
| 2026-05-05 00:17 | 27.48662 | -80.90499 | 19037 ft | 366 kts | 339° |
| 2026-05-05 00:18 | 27.51121 | -80.91233 | 19032 ft | 366 kts | 340° |
| 2026-05-05 00:18 | 27.53597 | -80.91970 | 19033 ft | 366 kts | 340° |
| 2026-05-05 00:18 | 27.56062 | -80.92705 | 19038 ft | 366 kts | 340° |
| 2026-05-05 00:18 | 27.58529 | -80.93440 | 19038 ft | 366 kts | 340° |
| 2026-05-05 00:19 | 27.60965 | -80.94167 | 19040 ft | 366 kts | 340° |
| 2026-05-05 00:19 | 27.63431 | -80.94903 | 19040 ft | 366 kts | 340° |
| 2026-05-05 00:19 | 27.65896 | -80.95639 | 19040 ft | 366 kts | 340° |
| 2026-05-05 00:19 | 27.68364 | -80.96376 | 19041 ft | 366 kts | 340° |
| 2026-05-05 00:20 | 27.70838 | -80.97117 | 18757 ft | 368 kts | 340° |
| 2026-05-05 00:20 | 27.73306 | -80.97852 | 18274 ft | 365 kts | 340° |
| 2026-05-05 00:20 | 27.75748 | -80.98581 | 17721 ft | 362 kts | 340° |
| 2026-05-05 00:20 | 27.78169 | -80.99306 | 17237 ft | 358 kts | 341° |
| 2026-05-05 00:21 | 27.80584 | -81.00031 | 16761 ft | 357 kts | 341° |
| 2026-05-05 00:21 | 27.82960 | -81.00742 | 16295 ft | 356 kts | 342° |
| 2026-05-05 00:21 | 27.85345 | -81.01457 | 15828 ft | 354 kts | 342° |
| 2026-05-05 00:21 | 27.87725 | -81.02170 | 15367 ft | 353 kts | 342° |
| 2026-05-05 00:22 | 27.90097 | -81.02882 | 14894 ft | 351 kts | 342° |
| 2026-05-05 00:22 | 27.92443 | -81.03585 | 14437 ft | 348 kts | 343° |
| 2026-05-05 00:22 | 27.94740 | -81.04426 | 13973 ft | 346 kts | 337° |
| 2026-05-05 00:22 | 27.96983 | -81.05397 | 13495 ft | 350 kts | 337° |
| 2026-05-05 00:23 | 27.99227 | -81.06334 | 13044 ft | 340 kts | 337° |
| 2026-05-05 00:23 | 28.01434 | -81.07254 | 12593 ft | 338 kts | 337° |
| 2026-05-05 00:23 | 28.03628 | -81.08186 | 12152 ft | 337 kts | 336° |
| 2026-05-05 00:23 | 28.05810 | -81.09119 | 11709 ft | 329 kts | 337° |
| 2026-05-05 00:24 | 28.07891 | -81.10025 | 11271 ft | 312 kts | 336° |
| 2026-05-05 00:24 | 28.09864 | -81.10892 | 10842 ft | 298 kts | 336° |
| 2026-05-05 00:24 | 28.11776 | -81.11727 | 10412 ft | 292 kts | 336° |
| 2026-05-05 00:24 | 28.13637 | -81.12536 | 9998 ft | 289 kts | 336° |
| 2026-05-05 00:25 | 28.15536 | -81.13353 | 9536 ft | 288 kts | 337° |
| 2026-05-05 00:25 | 28.17397 | -81.14104 | 9092 ft | 287 kts | 338° |
| 2026-05-05 00:25 | 28.19282 | -81.14850 | 8651 ft | 286 kts | 338° |
| 2026-05-05 00:25 | 28.21152 | -81.15586 | 8217 ft | 284 kts | 338° |
| 2026-05-05 00:26 | 28.22944 | -81.16481 | 7712 ft | 280 kts | 322° |
| 2026-05-05 00:26 | 28.24083 | -81.18165 | 7135 ft | 273 kts | 289° |
| 2026-05-05 00:26 | 28.24286 | -81.20274 | 6655 ft | 264 kts | 266° |
| 2026-05-05 00:26 | 28.24132 | -81.22341 | 6298 ft | 261 kts | 263° |
| 2026-05-05 00:27 | 28.23950 | -81.24348 | 6013 ft | 258 kts | 263° |
| 2026-05-05 00:27 | 28.23769 | -81.26332 | 6021 ft | 253 kts | 263° |
| 2026-05-05 00:27 | 28.23585 | -81.28349 | 6023 ft | 259 kts | 263° |
| 2026-05-05 00:27 | 28.23400 | -81.30406 | 6019 ft | 263 kts | 263° |
| 2026-05-05 00:28 | 28.23213 | -81.32492 | 6020 ft | 264 kts | 263° |
| 2026-05-05 00:28 | 28.23028 | -81.34567 | 6019 ft | 264 kts | 263° |
| 2026-05-05 00:28 | 28.22840 | -81.36665 | 6018 ft | 266 kts | 263° |
| 2026-05-05 00:28 | 28.22654 | -81.38722 | 6018 ft | 266 kts | 263° |
| 2026-05-05 00:29 | 28.22471 | -81.40794 | 6018 ft | 267 kts | 263° |
| 2026-05-05 00:29 | 28.22283 | -81.42880 | 6016 ft | 264 kts | 263° |
| 2026-05-05 00:29 | 28.22099 | -81.44957 | 6016 ft | 263 kts | 263° |
| 2026-05-05 00:29 | 28.21922 | -81.47014 | 6016 ft | 265 kts | 263° |
| 2026-05-05 00:30 | 28.21740 | -81.49111 | 6011 ft | 263 kts | 263° |
| 2026-05-05 00:30 | 28.21577 | -81.51146 | 6002 ft | 265 kts | 266° |
| 2026-05-05 00:30 | 28.22049 | -81.53142 | 5940 ft | 269 kts | 300° |
| 2026-05-05 00:30 | 28.23418 | -81.54540 | 5416 ft | 270 kts | 330° |
| 2026-05-05 00:31 | 28.25271 | -81.54876 | 4676 ft | 273 kts | 5° |
| 2026-05-05 00:31 | 28.27107 | -81.54492 | 4178 ft | 265 kts | 13° |
| 2026-05-05 00:31 | 28.28898 | -81.54061 | 3570 ft | 261 kts | 14° |
| 2026-05-05 00:31 | 28.30671 | -81.53676 | 3037 ft | 257 kts | 13° |
| 2026-05-05 00:32 | 28.32433 | -81.53322 | 2427 ft | 259 kts | 13° |
| 2026-05-05 00:32 | 28.34212 | -81.52969 | 2013 ft | 257 kts | 13° |
| 2026-05-05 00:32 | 28.35940 | -81.52633 | 2015 ft | 249 kts | 12° |
| 2026-05-05 00:32 | 28.37656 | -81.52299 | 2018 ft | 252 kts | 13° |
| 2026-05-05 00:33 | 28.39383 | -81.51962 | 2016 ft | 252 kts | 13° |
| 2026-05-05 00:33 | 28.41129 | -81.51624 | 2010 ft | 255 kts | 13° |
| 2026-05-05 00:33 | 28.42897 | -81.51277 | 2015 ft | 256 kts | 13° |
| 2026-05-05 00:33 | 28.44646 | -81.50937 | 2018 ft | 258 kts | 13° |
| 2026-05-05 00:34 | 28.46401 | -81.50590 | 2003 ft | 255 kts | 13° |
| 2026-05-05 00:34 | 28.48126 | -81.50162 | 1954 ft | 251 kts | 25° |
| 2026-05-05 00:34 | 28.49372 | -81.48880 | 1919 ft | 240 kts | 64° |
| 2026-05-05 00:34 | 28.49722 | -81.47065 | 2009 ft | 240 kts | 84° |
| 2026-05-05 00:35 | 28.50031 | -81.45245 | 2010 ft | 228 kts | 75° |
| 2026-05-05 00:35 | 28.50582 | -81.43671 | 1945 ft | 203 kts | 68° |
| 2026-05-05 00:35 | 28.51140 | -81.42215 | 1671 ft | 200 kts | 69° |
| 2026-05-05 00:35 | 28.51688 | -81.40771 | 1403 ft | 197 kts | 69° |
| 2026-05-05 00:36 | 28.52204 | -81.39412 | 1138 ft | 170 kts | 67° |
| 2026-05-05 00:36 | 28.52631 | -81.38293 | 924 ft | 139 kts | 69° |
| 2026-05-05 00:36 | 28.52984 | -81.37368 | 756 ft | 119 kts | 70° |
| 2026-05-05 00:36 | 28.53301 | -81.36516 | 632 ft | 115 kts | 68° |
| 2026-05-05 00:37 | 28.53624 | -81.35670 | 472 ft | 121 kts | 71° |
| 2026-05-05 00:37 | 28.53949 | -81.34795 | 310 ft | 121 kts | 69° |
| 2026-05-05 00:37 | 28.54272 | -81.33955 | 138 ft | 114 kts | 70° |
| 2026-05-05 00:37 | 28.54555 | -81.33213 | 117 ft | 79 kts | 66° |
| 2026-05-05 00:38 | 28.54694 | -81.32854 | 116 ft | 26 kts | 65° |
| 2026-05-05 00:38 | 28.54767 | -81.32838 | 116 ft | 15 kts | 302° |
| 2026-05-05 00:38 | 28.54791 | -81.32879 | 116 ft | 0 kts | 303° |
| 2026-05-05 00:39 | 28.54803 | -81.32899 | 114 ft | 10 kts | 303° |
| 2026-05-05 00:39 | 28.54795 | -81.32976 | 113 ft | 10 kts | 245° |
| 2026-05-05 00:39 | 28.54768 | -81.33051 | 115 ft | 10 kts | 246° |
| 2026-05-05 00:39 | 28.54742 | -81.33116 | 116 ft | 6 kts | 246° |
| 2026-05-05 00:40 | 28.54741 | -81.33120 | 116 ft | 0 kts | 245° |
| 2026-05-05 00:40 | 28.54739 | -81.33123 | 115 ft | 5 kts | 245° |
| 2026-05-05 00:41 | 28.54721 | -81.33210 | 116 ft | 14 kts | 265° |
| 2026-05-05 00:41 | 28.54706 | -81.33380 | 114 ft | 25 kts | 264° |
| 2026-05-05 00:41 | 28.54694 | -81.33506 | 114 ft | 23 kts | 263° |
| 2026-05-05 00:41 | 28.54698 | -81.33625 | 114 ft | 10 kts | 310° |
| 2026-05-05 00:42 | 28.54744 | -81.33681 | 116 ft | 9 kts | 318° |
| 2026-05-05 00:42 | 28.54797 | -81.33717 | 116 ft | 7 kts | 316° |
| 2026-05-05 00:42 | 28.54802 | -81.33724 | 116 ft | 0 kts | 308° |